createdAt,value
2019-01-08T00:00:32.521Z,86.83
2019-01-08T00:05:38.097Z,87.12
2019-01-08T00:10:43.540Z,87.29
2019-01-08T00:15:49.863Z,87.38
2019-01-08T00:20:55.468Z,87.69
2019-01-08T00:26:00.998Z,87.79
2019-01-08T00:31:06.551Z,87.85
2019-01-08T00:36:11.945Z,88.05
2019-01-08T00:41:17.519Z,88.11
2019-01-08T00:46:22.914Z,87.98
2019-01-08T00:51:28.453Z,88.04
2019-01-08T00:56:33.854Z,88.10
2019-01-08T01:01:39.231Z,88.14
2019-01-08T01:06:44.881Z,88.26
2019-01-08T01:11:50.399Z,88.28
2019-01-08T01:16:55.789Z,88.40
2019-01-08T01:22:02.286Z,88.43
2019-01-08T01:27:07.760Z,88.48
2019-01-08T01:32:13.367Z,88.57
2019-01-08T01:37:18.971Z,88.59
2019-01-08T01:42:24.595Z,88.80
2019-01-08T01:47:30.039Z,88.81
2019-01-08T01:52:35.498Z,88.96
2019-01-08T01:57:40.899Z,88.97
2019-01-08T02:02:46.433Z,89.00
2019-01-08T02:07:52.019Z,88.99
2019-01-08T02:12:57.578Z,89.20
2019-01-08T02:18:03.184Z,89.33
2019-01-08T02:23:08.684Z,89.58
2019-01-08T02:28:14.313Z,89.61
2019-01-08T02:33:19.893Z,89.62
2019-01-08T02:38:25.419Z,89.70
2019-01-08T02:43:31.040Z,89.79
2019-01-08T02:48:36.529Z,89.77
2019-01-08T02:53:42.294Z,89.75
2019-01-08T02:58:47.766Z,89.81
2019-01-08T03:03:53.699Z,90.04
2019-01-08T03:08:59.153Z,90.10
2019-01-08T03:19:22.363Z,89.96
2019-01-08T03:24:27.939Z,89.75
2019-01-08T03:29:33.981Z,89.85
2019-01-08T03:34:39.499Z,90.01
2019-01-08T03:39:44.999Z,89.93
2019-01-08T03:44:50.462Z,89.86
2019-01-08T03:49:55.855Z,90.10
2019-01-08T03:55:01.139Z,90.27
2019-01-08T04:00:08.085Z,90.32
2019-01-08T04:05:13.376Z,90.31
2019-01-08T04:10:18.779Z,90.40
2019-01-08T04:15:24.239Z,90.47
2019-01-08T04:20:29.579Z,90.37
2019-01-08T04:25:35.205Z,90.69
2019-01-08T04:30:40.623Z,90.91
2019-01-08T04:35:46.097Z,90.94
2019-01-08T04:40:51.380Z,90.84
2019-01-08T04:45:56.611Z,90.95
2019-01-08T04:51:01.960Z,91.06
2019-01-08T04:56:07.176Z,91.21
2019-01-08T05:01:12.580Z,91.47
2019-01-08T05:06:17.800Z,91.44
2019-01-08T05:11:23.065Z,91.46
2019-01-08T05:16:28.554Z,91.46
2019-01-08T05:21:33.886Z,91.49
2019-01-08T05:26:39.153Z,91.55
2019-01-08T05:31:44.600Z,91.63
2019-01-08T05:36:49.825Z,91.65
2019-01-08T05:41:55.110Z,91.64
2019-01-08T05:47:00.529Z,91.70
2019-01-08T05:52:05.882Z,91.66
2019-01-08T05:57:11.155Z,91.45
2019-01-08T06:02:16.586Z,91.51
2019-01-08T06:07:21.883Z,91.54
2019-01-08T06:12:27.192Z,91.52
2019-01-08T06:17:32.459Z,91.46
2019-01-08T06:22:37.860Z,91.35
2019-01-08T06:27:43.106Z,91.15
2019-01-08T06:32:48.482Z,91.20
2019-01-08T06:37:53.661Z,91.10
2019-01-08T06:42:58.966Z,91.02
2019-01-08T06:48:04.466Z,90.83
2019-01-08T06:53:09.779Z,89.30
2019-01-08T06:58:14.965Z,89.68
2019-01-08T07:03:20.316Z,89.45
2019-01-08T07:08:25.775Z,89.07
2019-01-08T07:13:31.060Z,88.75
2019-01-08T07:18:36.445Z,88.68
2019-01-08T07:23:41.855Z,88.19
2019-01-08T07:28:47.315Z,88.10
2019-01-08T07:33:52.565Z,88.30
2019-01-08T07:38:57.821Z,86.79
2019-01-08T07:44:03.182Z,86.32
2019-01-08T07:49:08.453Z,86.54
2019-01-08T07:54:13.818Z,86.39
2019-01-08T07:59:19.180Z,86.87
2019-01-08T08:04:24.557Z,86.61
2019-01-08T08:09:29.962Z,86.50
2019-01-08T08:19:47.055Z,86.42
2019-01-08T08:24:52.594Z,85.55
2019-01-08T08:29:57.947Z,84.54
2019-01-08T08:35:08.387Z,84.37
2019-01-08T08:40:10.254Z,84.32
2019-01-08T08:45:15.712Z,83.98
2019-01-08T08:50:21.140Z,83.35
2019-01-08T08:55:27.740Z,83.35
2019-01-08T09:00:33.113Z,82.70
2019-01-08T09:05:38.554Z,83.49
2019-01-08T09:10:43.963Z,83.59
2019-01-08T09:15:49.375Z,82.85
2019-01-08T09:20:54.610Z,83.20
2019-01-08T09:25:59.805Z,83.70
2019-01-08T09:31:05.312Z,83.55
2019-01-08T09:36:10.711Z,83.42
2019-01-08T09:41:15.999Z,83.14
2019-01-08T09:46:21.438Z,83.23
2019-01-08T09:51:26.918Z,83.00
2019-01-08T09:56:32.391Z,83.05
2019-01-08T10:01:37.780Z,82.45
2019-01-08T10:06:43.159Z,82.18
2019-01-08T10:11:48.546Z,82.49
2019-01-08T10:16:53.775Z,82.44
2019-01-08T10:21:59.179Z,82.08
2019-01-08T10:27:04.500Z,81.79
2019-01-08T10:32:09.938Z,80.80
2019-01-08T10:37:15.370Z,81.00
2019-01-08T10:42:20.715Z,81.23
2019-01-08T10:47:26.086Z,80.71
2019-01-08T10:52:32.826Z,79.98
2019-01-08T10:57:38.130Z,79.49
2019-01-08T11:02:43.401Z,79.37
2019-01-08T11:07:48.720Z,79.41
2019-01-08T11:12:54.035Z,79.19
2019-01-08T11:17:59.296Z,78.94
2019-01-08T11:23:05.385Z,79.35
2019-01-08T11:28:10.742Z,78.58
2019-01-08T11:33:16.383Z,78.01
2019-01-08T11:38:21.596Z,78.22
2019-01-08T11:43:26.957Z,78.54
2019-01-08T11:48:32.355Z,78.65
2019-01-08T11:53:37.639Z,78.57
2019-01-08T11:58:42.931Z,77.66
2019-01-08T12:03:48.221Z,77.98
2019-01-08T12:08:53.624Z,77.55
2019-01-08T12:13:59.055Z,77.79
2019-01-08T12:19:04.434Z,78.12
2019-01-08T12:24:09.817Z,77.57
2019-01-08T12:29:15.054Z,77.95
2019-01-08T12:34:20.390Z,77.88
2019-01-08T12:39:25.685Z,77.57
2019-01-08T12:44:31.136Z,77.94
2019-01-08T12:49:36.600Z,77.90
2019-01-08T12:54:42.132Z,75.21
2019-01-08T12:59:47.631Z,69.31
2019-01-08T13:04:53.065Z,68.51
2019-01-08T13:09:58.471Z,69.65
2019-01-08T13:15:03.853Z,70.88
2019-01-08T13:20:09.308Z,69.87
2019-01-08T13:25:14.594Z,72.79
2019-01-08T13:30:19.979Z,74.01
2019-01-08T13:35:25.290Z,74.09
2019-01-08T13:40:30.634Z,73.78
2019-01-08T13:45:36.110Z,74.55
2019-01-08T13:50:41.440Z,74.65
2019-01-08T13:55:46.834Z,74.14
2019-01-08T14:00:52.085Z,75.07
2019-01-08T14:05:57.490Z,75.05
2019-01-08T14:11:02.910Z,76.29
2019-01-08T14:16:08.255Z,76.09
2019-01-08T14:21:13.501Z,75.87
2019-01-08T14:26:18.880Z,75.33
2019-01-08T14:31:24.262Z,75.55
2019-01-08T14:36:31.884Z,74.84
2019-01-08T14:41:37.030Z,75.15
2019-01-08T14:46:42.237Z,74.60
2019-01-08T14:51:47.493Z,74.86
2019-01-08T14:56:52.995Z,74.68
2019-01-08T15:01:58.460Z,74.97
2019-01-08T15:07:03.782Z,75.67
2019-01-08T15:12:09.191Z,75.81
2019-01-08T15:17:14.498Z,76.28
2019-01-08T15:22:19.785Z,76.28
2019-01-08T15:27:25.104Z,76.30
2019-01-08T15:32:30.446Z,76.70
2019-01-08T15:37:35.805Z,76.55
2019-01-08T15:42:41.120Z,76.59
2019-01-08T15:47:46.490Z,77.14
2019-01-08T15:52:51.805Z,77.22
2019-01-08T15:57:57.194Z,76.99
2019-01-08T16:03:07.165Z,76.62
2019-01-08T16:08:09.594Z,76.67
2019-01-08T16:13:14.875Z,77.39
2019-01-08T16:18:20.217Z,77.07
2019-01-08T16:23:25.845Z,76.89
2019-01-08T16:28:31.425Z,76.71
2019-01-08T16:33:36.855Z,77.05
2019-01-08T16:38:42.131Z,76.26
2019-01-08T16:43:47.500Z,75.97
2019-01-08T16:48:53.139Z,76.66
2019-01-08T16:53:58.512Z,76.41
2019-01-08T16:59:03.753Z,76.48
2019-01-08T17:04:09.080Z,77.61
2019-01-08T17:09:14.604Z,78.55
2019-01-08T17:14:20.042Z,78.78
2019-01-08T17:19:25.334Z,78.54
2019-01-08T17:24:30.798Z,78.35
2019-01-08T17:29:36.038Z,78.46
2019-01-08T17:34:41.449Z,78.61
2019-01-08T17:39:46.803Z,78.59
2019-01-08T17:44:53.466Z,78.38
2019-01-08T17:49:59.033Z,78.42
2019-01-08T17:55:05.193Z,77.94
2019-01-08T18:00:12.034Z,77.72
2019-01-08T18:05:17.543Z,77.91
2019-01-08T18:10:22.959Z,77.46
2019-01-08T18:15:28.461Z,77.35
2019-01-08T18:20:33.740Z,77.27
2019-01-08T18:25:39.180Z,77.19
2019-01-08T18:30:44.842Z,76.73
2019-01-08T18:41:01.695Z,76.73
2019-01-08T18:46:07.106Z,76.62
2019-01-08T18:51:14.466Z,76.45
2019-01-08T18:56:19.816Z,76.45
2019-01-08T19:01:25.070Z,76.41
2019-01-08T19:06:30.426Z,76.36
2019-01-08T19:11:35.641Z,76.26
2019-01-08T19:16:43.038Z,76.36
2019-01-08T19:21:48.006Z,75.98
2019-01-08T19:26:53.482Z,75.98
2019-01-08T19:31:58.629Z,75.96
2019-01-08T19:37:03.946Z,75.65
2019-01-08T19:42:09.306Z,76.03
2019-01-08T19:47:14.631Z,76.14
2019-01-08T19:52:19.956Z,76.18
2019-01-08T19:57:25.340Z,75.29
2019-01-08T20:02:30.782Z,74.18
2019-01-08T20:07:36.171Z,74.23
2019-01-08T20:12:41.627Z,74.30
2019-01-08T20:17:47.061Z,74.34
2019-01-08T20:22:52.411Z,74.10
2019-01-08T20:27:57.871Z,73.06
2019-01-08T20:33:04.116Z,73.19
2019-01-08T20:38:09.492Z,73.52
2019-01-08T20:43:16.571Z,73.99
2019-01-08T20:48:21.986Z,74.41
2019-01-08T20:53:27.346Z,74.60
2019-01-08T20:58:32.817Z,74.68
2019-01-08T21:03:38.211Z,74.64
2019-01-08T21:08:43.537Z,74.50
2019-01-08T21:13:48.781Z,74.93
2019-01-08T21:18:53.984Z,75.17
2019-01-08T21:23:59.271Z,75.08
2019-01-08T21:29:04.728Z,75.23
2019-01-08T21:34:10.174Z,75.78
2019-01-08T21:39:16.392Z,76.02
2019-01-08T21:44:21.647Z,75.94
2019-01-08T21:49:27.006Z,75.61
2019-01-08T21:54:32.246Z,74.90
2019-01-08T21:59:37.730Z,75.61
2019-01-08T22:04:43.156Z,75.79
2019-01-08T22:09:48.423Z,75.35
2019-01-08T22:14:53.659Z,74.87
2019-01-08T22:19:59.281Z,74.62
2019-01-08T22:25:04.732Z,74.55
2019-01-08T22:30:10.394Z,74.08
2019-01-08T22:35:15.802Z,74.28
2019-01-08T22:40:21.287Z,74.28
2019-01-08T22:45:29.345Z,74.07
2019-01-08T22:50:34.667Z,74.38
2019-01-08T22:55:39.931Z,74.32
2019-01-08T23:01:05.600Z,74.76
2019-01-08T23:06:11.013Z,74.93
2019-01-08T23:11:16.606Z,74.60
2019-01-08T23:16:21.760Z,72.90
2019-01-08T23:21:27.142Z,73.09
2019-01-08T23:26:32.363Z,72.33
2019-01-08T23:31:37.725Z,71.61
2019-01-08T23:36:42.902Z,71.78
2019-01-08T23:41:48.200Z,72.14
2019-01-08T23:46:53.475Z,72.34
2019-01-08T23:52:06.480Z,71.72
2019-01-08T23:57:12.552Z,71.50
